Flight Track Log - Related Links

Times and Time Zones

All times are in EDT time to prevent confusion due to time zone crossing. See the N699PS flight status page for this flight to view local times or setup timezone preferences in your user account.

Time Position Orientation Groundspeed Altitude Reporting Facility
EDT Latitude Longitude Course Direction KTS MPH feet Rate Location/Type
Wed 02:18:03 PM 41.5092 -71.3147 209° Southwest 134 154 1,800  Level Boston Center
Wed 02:19:46 PM 41.4553 -71.3544 209° Southwest 129 148 3,600 1,025 Climbing Boston Center
Wed 02:20:41 PM 41.4347 -71.3881 231° Southwest 119 137 4,500 982 Climbing Boston Center
Wed 02:21:36 PM 41.4164 -71.4242 236° Southwest 125 144 5,400 936 Climbing Boston Center
Wed 02:22:30 PM 41.4000 -71.4550 235° Southwest 123 142 6,200 939 Climbing Boston Center
Wed 02:23:31 PM 41.3794 -71.4967 237° Southwest 127 146 7,200 893 Climbing Boston Center
Wed 02:24:31 PM 41.3589 -71.5331 233° Southwest 124 143 8,000 470 Climbing Boston Center
Wed 02:25:26 PM 41.3383 -71.5692 233° Southwest 144 166 8,100 52 Climbing Boston Center
Wed 02:26:27 PM 41.3075 -71.6222 232° Southwest 163 188 8,100  Level Boston Center
Wed 02:27:33 PM 41.2786 -71.6750 234° Southwest 171 197 8,100  Level Boston Center
Wed 02:28:34 PM 41.2497 -71.7250 232° Southwest 169 194 8,100  Level Boston Center
Wed 02:29:35 PM 41.2231 -71.7778 236° Southwest 175 201 8,100  Level Boston Center
Wed 02:30:29 PM 41.1961 -71.8250 233° Southwest 169 194 8,100  Level Boston Center
Wed 02:31:30 PM 41.1611 -71.8775 228° Southwest 179 206 8,100  Level Boston Center
Wed 02:32:31 PM 41.1342 -71.9303 236° Southwest 179 206 8,100 36 Level Boston Center
Wed 02:34:15 PM 41.0844 -72.0106 231° Southwest 186 214 8,200  Climbing Boston Center
Wed 02:35:27 PM 41.0494 -72.0767 235° Southwest 186 214 8,100 -45 Descending Boston Center
Wed 02:36:27 PM 41.0183 -72.1292 232° Southwest 186 214 8,100  Level Boston Center
Wed 02:37:27 PM 40.9892 -72.1817 234° Southwest 181 208 8,100  Level Boston Center
Wed 02:38:27 PM 40.9603 -72.2339 234° Southwest 181 208 8,100  Level Boston Center
Wed 02:39:27 PM 40.9311 -72.2836 232° Southwest 181 208 8,100 50 Level Boston Center
Wed 02:40:27 PM 40.9000 -72.3358 232° Southwest 181 208 8,200  Climbing Boston Center
Wed 02:41:27 PM 40.8583 -72.3797 219° Southwest 181 208 8,100  Descending Boston Center
Wed 02:42:27 PM 40.8208 -72.4236 222° Southwest 186 214 8,200 50 Climbing Boston Center
Wed 02:43:27 PM 40.7853 -72.4731 226° Southwest 186 214 8,200 -50 Level Boston Center
Wed 02:44:27 PM 40.7456 -72.5194 222° Southwest 186 214 8,100  Descending Boston Center
Wed 02:45:27 PM 40.7061 -72.5714 225° Southwest 186 214 8,200 50 Climbing Boston Center
Wed 02:46:27 PM 40.6664 -72.6181 222° Southwest 186 214 8,200 -50 Level Boston Center
Wed 02:47:27 PM 40.6289 -72.6644 223° Southwest 186 214 8,100  Descending Boston Center
Wed 02:48:27 PM 40.5933 -72.7078 223° Southwest 186 214 8,200  Climbing Boston Center
Wed 02:49:27 PM 40.5536 -72.7542 222° Southwest 186 214 8,100  Descending Boston Center
Wed 02:50:27 PM 40.5158 -72.8006 223° Southwest 186 214 8,200  Climbing Boston Center
Wed 02:52:42 PM 40.4406 -72.8953 224° Southwest 183 211 8,100 -31 Descending New York Center
Wed 02:53:43 PM 40.4003 -72.9433 222° Southwest 183 211 8,100  Level New York Center
Wed 02:54:41 PM 40.3681 -72.9858 225° Southwest 183 211 8,100  Level New York Center
Wed 02:55:41 PM 40.3275 -73.0333 222° Southwest 183 211 8,100 49 Level New York Center
Wed 02:56:43 PM 40.2936 -73.0731 222° Southwest 183 211 8,200 50 Climbing New York Center
Wed 02:57:40 PM 40.2531 -73.1208 222° Southwest 188 216 8,200 -51 Level New York Center
Wed 02:58:41 PM 40.2189 -73.1603 221° Southwest 188 216 8,100  Descending New York Center
Wed 02:59:42 PM 40.1844 -73.2133 230° Southwest 177 204 8,200  Climbing New York Center
Wed 03:00:42 PM 40.1542 -73.2558 227° Southwest 177 204 8,100 -50 Descending New York Center
Wed 03:01:41 PM 40.1197 -73.3117 231° Southwest 184 212 8,100 50 Level New York Center
Wed 03:02:42 PM 40.0897 -73.3511 225° Southwest 184 212 8,200 49 Climbing New York Center
Wed 03:03:43 PM 40.0531 -73.4014 226° Southwest 184 212 8,200 -50 Level New York Center
Wed 03:04:41 PM 40.0208 -73.4433 225° Southwest 184 212 8,100 -50 Descending New York Center
Wed 03:05:42 PM 39.9842 -73.4989 229° Southwest 190 219 8,100  Level New York Center
Wed 03:06:43 PM 39.9497 -73.5464 227° Southwest 185 213 8,100 50 Level New York Center
Wed 03:07:41 PM 39.9175 -73.5911 227° Southwest 180 207 8,200  Climbing New York Center
Wed 03:08:42 PM 39.8831 -73.6356 225° Southwest 180 207 8,100 -50 Descending New York Center
Wed 03:09:42 PM 39.8506 -73.6803 227° Southwest 185 213 8,100 50 Level New York Center
Wed 03:10:43 PM 39.8181 -73.7275 228° Southwest 185 213 8,200  Climbing New York Center
Wed 03:11:41 PM 39.7858 -73.7747 228° Southwest 185 213 8,100 -51 Descending New York Center
Wed 03:12:41 PM 39.7556 -73.8167 227° Southwest 185 213 8,100  Level New York Center
Wed 03:13:41 PM 39.7231 -73.8611 226° Southwest 185 213 8,100 50 Level New York Center
Wed 03:14:41 PM 39.6906 -73.9056 226° Southwest 185 213 8,200 50 Climbing New York Center
Wed 03:15:42 PM 39.6622 -73.9475 229° Southwest 185 213 8,200 -45 Level New York Center
Wed 03:16:55 PM 39.6175 -74.0047 225° Southwest 177 204 8,100  Descending Washington Center
Wed 03:17:56 PM 39.5847 -74.0486 226° Southwest 177 204 8,200  Climbing Washington Center
Wed 03:18:56 PM 39.5519 -74.0953 228° Southwest 171 197 8,100 -50 Descending Washington Center
Wed 03:19:55 PM 39.5150 -74.1361 220° Southwest 171 197 8,100 50 Level Washington Center
Wed 03:20:56 PM 39.4781 -74.1747 219° Southwest 177 204 8,200  Climbing Washington Center
Wed 03:21:55 PM 39.4408 -74.2183 222° Southwest 182 209 8,100  Descending Washington Center
Wed 03:22:55 PM 39.4061 -74.2594 222° Southwest 187 215 8,200  Climbing Washington Center
Wed 03:23:56 PM 39.3689 -74.2975 218° Southwest 187 215 8,100 -50 Descending Washington Center
Wed 03:24:54 PM 39.3361 -74.3358 222° Southwest 187 215 8,100  Level Washington Center
Wed 03:25:55 PM 39.2989 -74.3767 220° Southwest 187 215 8,100  Level Washington Center
Wed 03:26:55 PM 39.2617 -74.4175 220° Southwest 187 215 8,100 50 Level Washington Center
Wed 03:27:56 PM 39.2267 -74.4556 220° Southwest 187 215 8,200  Climbing Washington Center
Wed 03:28:54 PM 39.1897 -74.4989 222° Southwest 187 215 8,100 -50 Descending Washington Center
Wed 03:29:55 PM 39.1503 -74.5397 219° Southwest 187 215 8,100  Level Washington Center
Wed 03:30:56 PM 39.1153 -74.5778 220° Southwest 187 215 8,100  Level Washington Center
Wed 03:31:55 PM 39.0803 -74.6156 220° Southwest 187 215 8,100 -50 Level Washington Center
Wed 03:32:55 PM 39.0431 -74.6589 222° Southwest 187 215 8,000 -50 Descending Washington Center
Wed 03:33:55 PM 39.0036 -74.6994 219° Southwest 187 215 8,000  Level Washington Center
Wed 03:34:54 PM 38.9686 -74.7400 222° Southwest 182 209 8,000  Level Washington Center
Wed 03:35:56 PM 38.9333 -74.7778 220° Southwest 182 209 8,000  Level Washington Center
Wed 03:36:54 PM 38.8961 -74.8181 220° Southwest 182 209 8,000  Level Washington Center
Wed 03:37:55 PM 38.8589 -74.8611 222° Southwest 182 209 8,000  Level Washington Center
Wed 03:38:56 PM 38.8217 -74.8961 216° Southwest 182 209 8,000  Level Washington Center
Wed 03:39:56 PM 38.7864 -74.9392 224° Southwest 182 209 8,000  Level Washington Center
Wed 03:40:54 PM 38.7511 -74.9767 220° Southwest 182 209 8,000  Level Washington Center
Wed 03:41:55 PM 38.7158 -75.0144 220° Southwest 182 209 8,000  Level Washington Center
Wed 03:42:56 PM 38.6786 -75.0519 218° Southwest 182 209 8,000  Level Washington Center
Wed 03:43:54 PM 38.6411 -75.0892 218° Southwest 182 209 8,000  Level Washington Center
Wed 03:44:54 PM 38.5975 -75.1189 208° Southwest 182 209 8,000  Level Washington Center
Wed 03:45:55 PM 38.5517 -75.1483 207° Southwest 177 204 8,000  Level Washington Center
Wed 03:46:55 PM 38.5081 -75.1753 206° Southwest 182 209 8,000  Level Washington Center
Wed 03:47:56 PM 38.4603 -75.2047 206° Southwest 182 209 8,000  Level Washington Center
Wed 03:48:54 PM 38.4164 -75.2286 203° Southwest 182 209 8,000  Level Washington Center
Wed 03:49:55 PM 38.3686 -75.2633 210° Southwest 188 216 8,000  Level Washington Center
Wed 03:50:56 PM 38.3228 -75.2875 202° Southwest 188 216 8,000  Level Washington Center
Wed 03:51:54 PM 38.2750 -75.3247 211° Southwest 193 222 8,000  Level Washington Center
Wed 03:52:55 PM 38.2292 -75.3564 208° Southwest 198 228 8,000 50 Level Washington Center
Wed 03:53:55 PM 38.1772 -75.3858 204° Southwest 193 222 8,100  Climbing Washington Center
Wed 03:54:56 PM 38.1292 -75.4175 207° Southwest 193 222 8,000 -50 Descending Washington Center
Wed 03:55:56 PM 38.0897 -75.4414 205° Southwest 198 228 8,000  Level Washington Center
Wed 03:56:54 PM 38.0311 -75.4731 203° Southwest 198 228 8,000  Level Washington Center
Wed 03:57:55 PM 37.9853 -75.5047 209° Southwest 198 228 8,000  Level Washington Center
Wed 03:58:56 PM 37.9394 -75.5364 209° Southwest 198 228 8,000  Level Washington Center
Wed 03:59:56 PM 37.8936 -75.5681 209° Southwest 193 222 8,000 60 Level Washington Center
Wed 04:00:36 PM 37.8625 -75.5944 214° Southwest 187 215 8,100  Climbing Washington Center
Wed 04:00:54 PM 37.8478 -75.5997 196° South 193 222 8,000 -76 Descending Washington Center
Wed 04:01:55 PM 37.7997 -75.6311 207° Southwest 193 222 8,000 75 Level Washington Center
Wed 04:02:14 PM 37.7872 -75.6444 220° Southwest 190 219 8,100  Climbing Washington Center
Wed 04:02:56 PM 37.7561 -75.6628 205° Southwest 193 222 8,000 -105 Descending Washington Center
Wed 04:03:11 PM 37.7394 -75.6758 212° Southwest 191 220 8,000  Level Washington Center
Wed 04:03:54 PM 37.7081 -75.6942 205° Southwest 193 222 8,000  Level Washington Center
Wed 04:04:18 PM 37.6892 -75.7100 214° Southwest 193 222 8,000  Level Washington Center
Wed 04:05:00 PM 37.6539 -75.7333 208° Southwest 190 219 8,000  Level Washington Center
Wed 04:05:55 PM 37.6142 -75.7597 208° Southwest 193 222 8,000  Level Washington Center
Wed 04:06:55 PM 37.5703 -75.7883 207° Southwest 193 222 8,000  Level Washington Center
Wed 04:07:11 PM 37.5578 -75.7989 214° Southwest 190 219 8,000  Level Washington Center
Wed 04:07:56 PM 37.5222 -75.8197 205° Southwest 193 222 8,000  Level Washington Center
Wed 04:08:11 PM 37.5097 -75.8300 213° Southwest 191 220 8,000  Level Washington Center
Wed 04:08:54 PM 37.4742 -75.8508 205° Southwest 193 222 8,000  Level Washington Center
Wed 04:09:18 PM 37.4553 -75.8664 213° Southwest 195 224 8,000  Level Washington Center
Wed 04:09:54 PM 37.4261 -75.8822 203° Southwest 193 222 8,000  Level Washington Center
Wed 04:10:19 PM 37.4072 -75.8978 213° Southwest 196 226 8,000  Level Washington Center
Wed 04:11:19 PM 37.3592 -75.9317 209° Southwest 193 222 8,000  Level Washington Center
Wed 04:12:19 PM 37.3092 -75.9625 206° Southwest 194 223 8,000  Level Washington Center
Wed 04:13:20 PM 37.2631 -75.9936 208° Southwest 194 223 8,000  Level Washington Center
Wed 04:14:14 PM 37.2192 -76.0222 207° Southwest 193 222 8,000  Level Washington Center
Wed 04:15:16 PM 37.1711 -76.0558 209° Southwest 192 221 8,000  Level Washington Center
Wed 04:16:10 PM 37.1292 -76.0817 206° Southwest 194 223 8,000  Level Washington Center
Wed 04:17:05 PM 37.0853 -76.1125 209° Southwest 194 223 8,000  Level Washington Center
Wed 04:18:12 PM 37.0289 -76.1461 205° Southwest 194 223 8,000  Level Washington Center
Wed 04:19:19 PM 36.9767 -76.1819 209° Southwest 198 228 8,000  Level Washington Center
Wed 04:20:20 PM 36.9283 -76.2156 209° Southwest 194 223 8,000  Level Washington Center
Wed 04:21:21 PM 36.8781 -76.2489 208° Southwest 196 226 8,000  Level Washington Center
Wed 04:22:22 PM 36.8300 -76.2822 209° Southwest 190 219 8,000  Level Washington Center
Wed 04:23:23 PM 36.7819 -76.3128 207° Southwest 199 229 8,000  Level Washington Center
Wed 04:24:30 PM 36.7211 -76.3511 207° Southwest 199 229 8,000  Level Washington Center
Wed 04:25:25 PM 36.6856 -76.3767 210° Southwest 198 228 8,000  Level Washington Center
Wed 04:26:19 PM 36.6394 -76.4022 204° Southwest 199 229 8,000  Level Washington Center
Wed 04:27:13 PM 36.5933 -76.4328 208° Southwest 196 226 8,000  Level Washington Center
Wed 04:27:32 PM 36.5764 -76.4456 211° Southwest 199 229 8,000  Level Washington Center
Wed 04:28:15 PM 36.5431 -76.4683 209° Southwest 199 229 8,000  Level Washington Center
Wed 04:28:30 PM 36.5283 -76.4758 202° Southwest 199 229 8,000  Level Washington Center
Wed 04:29:30 PM 36.4822 -76.5064 208° Southwest 207 238 8,000 49 Level Washington Center
Wed 04:30:32 PM 36.4339 -76.5394 209° Southwest 207 238 8,100 50 Climbing Washington Center
Wed 04:31:30 PM 36.3836 -76.5697 206° Southwest 207 238 8,100  Level Washington Center
Wed 04:32:30 PM 36.3353 -76.6028 209° Southwest 207 238 8,100  Level Washington Center
Wed 04:33:31 PM 36.2850 -76.6331 206° Southwest 207 238 8,100  Level Washington Center
Wed 04:34:32 PM 36.2347 -76.6633 206° Southwest 202 232 8,100  Level Washington Center
Wed 04:35:30 PM 36.1864 -76.6933 207° Southwest 202 232 8,100  Level Washington Center
Wed 04:36:30 PM 36.1381 -76.7261 209° Southwest 207 238 8,100  Level Washington Center
Wed 04:37:32 PM 36.0878 -76.7589 208° Southwest 207 238 8,100  Level Washington Center
Wed 04:38:33 PM 36.0394 -76.7892 207° Southwest 207 238 8,100  Level Washington Center
Wed 04:39:30 PM 35.9892 -76.8217 208° Southwest 207 238 8,100  Level Washington Center
Wed 04:40:30 PM 35.9367 -76.8542 207° Southwest 207 238 8,100  Level Washington Center
Wed 04:41:31 PM 35.8883 -76.8867 209° Southwest 207 238 8,100  Level Washington Center
Wed 04:42:31 PM 35.8378 -76.9219 209° Southwest 207 238 8,100  Level Washington Center
Wed 04:43:32 PM 35.7872 -76.9542 207° Southwest 207 238 8,100  Level Washington Center
Wed 04:44:30 PM 35.7350 -76.9814 203° Southwest 207 238 8,100  Level Washington Center
Wed 04:45:31 PM 35.6844 -77.0164 209° Southwest 202 232 8,100  Level Washington Center
Wed 04:46:31 PM 35.6361 -77.0461 207° Southwest 202 232 8,100 50 Level Washington Center
Wed 04:47:32 PM 35.5919 -77.0786 211° Southwest 202 232 8,200  Climbing Washington Center
Wed 04:48:30 PM 35.5372 -77.1083 204° Southwest 207 238 8,100 -51 Descending Washington Center
Wed 04:49:30 PM 35.4908 -77.1431 211° Southwest 207 238 8,100  Level Washington Center
Wed 04:50:31 PM 35.4425 -77.1753 209° Southwest 207 238 8,100  Level Washington Center
Wed 04:51:32 PM 35.3878 -77.2072 205° Southwest 207 238 8,100  Level Washington Center
Wed 04:52:30 PM 35.3372 -77.2369 206° Southwest 207 238 8,100  Level Washington Center
Wed 04:53:30 PM 35.2867 -77.2714 209° Southwest 207 238 8,100  Level Washington Center
Wed 04:54:31 PM 35.2342 -77.3033 206° Southwest 207 238 8,100  Level Washington Center
Wed 04:55:32 PM 35.1814 -77.3353 206° Southwest 207 238 8,100 50 Level Washington Center
Wed 04:56:30 PM 35.1331 -77.3672 208° Southwest 207 238 8,200  Climbing Washington Center
Wed 04:57:30 PM 35.0803 -77.3992 206° Southwest 207 238 8,100 -100 Descending Washington Center
Wed 04:59:00 PM 35.0085 -77.4297 199° South  Level FlightAware Approximate
Wed 05:06:00 PM 34.6936 -77.6312 208° Southwest  Level FlightAware Approximate
Wed 05:07:00 PM 34.6487 -77.6597 207° Southwest  Level FlightAware Approximate
Wed 05:08:00 PM 34.6037 -77.6881 207° Southwest  Level FlightAware Approximate
Wed 05:09:00 PM 34.5587 -77.7165 207° Southwest  Level FlightAware Approximate
Wed 05:10:00 PM 34.5137 -77.7449 207° Southwest  Level FlightAware Approximate
Wed 05:11:00 PM 34.4687 -77.7732 207° Southwest  Level FlightAware Approximate
Wed 05:12:00 PM 34.4237 -77.8016 207° Southwest  Level FlightAware Approximate
Wed 05:13:00 PM 34.3786 -77.8298 207° Southwest  Level FlightAware Approximate
Wed 05:14:00 PM 34.3336 -77.8581 207° Southwest  Level FlightAware Approximate
Wed 05:15:00 PM 34.2886 -77.8863 207° Southwest  Level FlightAware Approximate
Wed 05:16:00 PM 34.2667 -77.9000 208° Southwest  Level FlightAware Approximate
Wed 05:17:00 PM 34.2706 -77.9026 208° Southwest  Level Estimated
Wed 05:18:00 PM 34.2667 -77.9000 208° Southwest  Level FlightAware Approximate
Wed 05:19:00 PM 34.2706 -77.9026 208° Southwest  Level Estimated
Wed 05:20:00 PM 34.2667 -77.9000 208° Southwest  Level FlightAware Approximate
Wed 05:21:00 PM 34.2706 -77.9026 208° Southwest  Level Estimated
Wed 05:22:00 PM 34.2667 -77.9000 208° Southwest  Level FlightAware Approximate
Wed 05:23:00 PM 34.2706 -77.9026 208° Southwest  Level Estimated
Wed 05:24:00 PM 34.2667 -77.9000 208° Southwest  Level FlightAware Approximate

Login

Don't have an account? Register now (free) for customized features, flight alerts, and more!